Flight Track Log - Related Links

Times and Time Zones

All times are in EDT time to prevent confusion due to time zone crossing. See the AWE647 flight status page for this flight to view local times or setup timezone preferences in your user account.

Time Position Orientation Groundspeed Altitude Reporting Facility
EDT Latitude Longitude Course Direction KTS MPH feet Rate Location/Type
Sat 01:26:01 PM 33.4333 -112.0000 273° West 171 197 1,800  Level Phoenix TRACON
Sat 01:26:30 PM 33.4322 -111.9719 93° East 156 180 2,600 1,978 Climbing Albuquerque Center
Sat 01:27:32 PM 33.4356 -111.9014 87° East 209 241 4,800 2,468 Climbing Albuquerque Center
Sat 01:28:00 PM 33.4333 -112.3157 270° West  Level FlightAware Approximate
Sat 01:28:34 PM 33.4058 -111.8439 122° Southeast 243 280 7,700  Level Albuquerque Center
Sat 01:29:00 PM 33.4349 -112.4209 273° West  Level FlightAware Approximate
Sat 01:29:36 PM 33.3458 -111.8783 206° Southwest 242 278 10,900  Level Albuquerque Center
Sat 01:30:00 PM 33.4392 -112.5260 273° West  Level FlightAware Approximate
Sat 01:30:38 PM 33.2814 -111.9278 213° Southwest 276 318 13,500  Level Albuquerque Center
Sat 01:31:00 PM 33.4434 -112.6311 273° West  Level FlightAware Approximate
Sat 01:31:40 PM 33.2883 -112.0289 275° West 313 360 15,200  Level Albuquerque Center
Sat 01:32:42 PM 33.3125 -112.1439 284° West 352 405 17,800 2,710 Climbing Albuquerque Center
Sat 01:33:44 PM 33.3425 -112.2861 284° West 367 422 20,800 2,516 Climbing Albuquerque Center
Sat 01:34:46 PM 33.3678 -112.4081 284° West 375 432 23,000 2,032 Climbing Albuquerque Center
Sat 01:35:48 PM 33.3936 -112.5325 284° West 382 440 25,000 1,694 Climbing Albuquerque Center
Sat 01:36:50 PM 33.4197 -112.6578 284° West 391 450 26,500 1,452 Climbing Albuquerque Center
Sat 01:37:52 PM 33.4467 -112.7892 284° West 402 463 28,000 1,645 Climbing Albuquerque Center
Sat 01:38:54 PM 33.4792 -112.9519 284° West 415 478 29,900 919 Climbing Albuquerque Center
Sat 01:39:56 PM 33.5044 -113.0886 283° West 420 483 29,900 48 Level Albuquerque Center
Sat 01:40:59 PM 33.5325 -113.2308 283° West 434 499 30,000 48 Climbing Albuquerque Center
Sat 01:42:01 PM 33.5589 -113.3744 282° West 442 509 30,000  Level Albuquerque Center
Sat 01:43:03 PM 33.5858 -113.5164 283° West 440 506 30,000 823 Level Albuquerque Center
Sat 01:44:05 PM 33.6147 -113.6667 283° West 441 507 31,700 968 Climbing Albuquerque Center
Sat 01:45:07 PM 33.6397 -113.8064 282° West 434 499 32,000 145 Climbing Albuquerque Center
Sat 01:46:09 PM 33.6658 -113.9469 283° West 431 496 32,000  Level Albuquerque Center
Sat 01:47:11 PM 33.6964 -114.1178 282° West 435 501 32,000  Level Albuquerque Center
Sat 01:48:13 PM 33.7208 -114.2494 283° West 435 501 32,000 -48 Level Albuquerque Center
Sat 01:49:15 PM 33.7456 -114.3919 282° West 436 502 31,900 -48 Descending Albuquerque Center
Sat 01:50:17 PM 33.7753 -114.5564 282° West 425 489 31,900 50 Level Albuquerque Center
Sat 01:51:15 PM 33.7822 -114.6839 274° West 426 490 32,000 50 Climbing Los Angeles Center
Sat 01:52:17 PM 33.7911 -114.8239 274° West 423 487 32,000  Level Los Angeles Center
Sat 01:53:19 PM 33.7989 -114.9650 274° West 424 488 32,000 -48 Level Los Angeles Center
Sat 01:54:21 PM 33.8075 -115.1053 274° West 423 487 31,900  Descending Los Angeles Center
Sat 01:55:23 PM 33.8161 -115.2764 274° West 428 493 32,000 -339 Climbing Los Angeles Center
Sat 01:56:25 PM 33.8233 -115.4183 274° West 427 491 31,200 -774 Descending Los Angeles Center
Sat 01:57:27 PM 33.8292 -115.5278 274° West 421 484 30,400 -968 Descending Los Angeles Center
Sat 01:58:29 PM 33.8361 -115.6903 273° West 409 471 29,200 -1,008 Descending Los Angeles Center
Sat 01:59:32 PM 33.8433 -115.8250 274° West 407 468 28,300 -1,016 Descending Los Angeles Center
Sat 02:00:33 PM 33.8506 -115.9861 273° West 405 466 27,100 -1,065 Descending Los Angeles Center
Sat 02:01:36 PM 33.8564 -116.1167 273° West 397 457 26,100 -1,392 Descending Los Angeles Center
Sat 02:02:38 PM 33.8622 -116.2444 273° West 389 448 24,200 -1,887 Descending Los Angeles Center
Sat 02:03:40 PM 33.8675 -116.3697 273° West 378 435 22,200 -2,177 Descending Los Angeles Center
Sat 02:04:42 PM 33.8736 -116.4917 273° West 370 426 19,700 -2,661 Descending Los Angeles Center
Sat 02:05:44 PM 33.8800 -116.6419 273° West 375 432 16,700 -2,613 Descending Los Angeles Center
Sat 02:06:46 PM 33.8861 -116.7625 274° West 365 420 14,300 -1,872 Descending Los Angeles Center
Sat 02:07:49 PM 33.9000 -116.8833 278° West 311 358 12,800 -1,891 Descending Southern California TRACON
Sat 02:09:50 PM 33.9333 -117.0667 282° West 277 319 8,500 -2,091 Descending Southern California TRACON
Sat 02:10:44 PM 33.9667 -117.1500 296° West 269 310 6,700 -1,250 Descending Southern California TRACON
Sat 02:11:50 PM 34.0000 -117.2167 301° West 244 281 6,000 -810 Descending Southern California TRACON
Sat 02:12:50 PM 34.0333 -117.2833 301° West 216 249 5,000 -887 Descending Southern California TRACON
Sat 02:13:45 PM 34.0500 -117.3500 287° West 220 253 4,300 -764 Descending Southern California TRACON

Login

Don't have an account? Register now (free) for customized features, flight alerts, and more!